createdAt,value
2019-02-25T00:00:32.343Z,29.00
2019-02-25T00:03:00.964Z,28.90
2019-02-25T00:05:29.564Z,28.80
2019-02-25T00:07:58.217Z,28.80
2019-02-25T00:10:26.789Z,29.10
2019-02-25T00:12:55.789Z,28.70
2019-02-25T00:15:24.408Z,28.70
2019-02-25T00:17:53.132Z,28.80
2019-02-25T00:20:21.756Z,28.70
2019-02-25T00:22:50.331Z,28.60
2019-02-25T00:25:18.880Z,28.30
2019-02-25T00:27:47.444Z,28.30
2019-02-25T00:30:16.336Z,28.30
2019-02-25T00:32:44.909Z,28.10
2019-02-25T00:35:13.529Z,27.90
2019-02-25T00:37:42.283Z,27.50
2019-02-25T00:40:13.240Z,27.40
2019-02-25T00:42:44.740Z,27.40
2019-02-25T00:45:15.601Z,27.30
2019-02-25T00:47:44.401Z,27.60
2019-02-25T00:50:18.189Z,27.70
2019-02-25T00:52:46.795Z,27.80
2019-02-25T00:55:16.091Z,28.00
2019-02-25T00:57:44.643Z,27.80
2019-02-25T01:00:19.040Z,27.70
2019-02-25T01:02:47.670Z,27.70
2019-02-25T01:05:16.704Z,27.30
2019-02-25T01:07:45.517Z,27.90
2019-02-25T01:10:15.148Z,27.30
2019-02-25T01:12:45.239Z,26.80
2019-02-25T01:15:14.150Z,27.00
2019-02-25T01:17:42.700Z,26.60
2019-02-25T01:20:16.617Z,26.50
2019-02-25T01:22:45.704Z,26.70
2019-02-25T01:25:16.805Z,26.80
2019-02-25T01:27:45.394Z,27.20
2019-02-25T01:30:18.877Z,27.00
2019-02-25T01:32:47.518Z,26.60
2019-02-25T01:35:16.144Z,26.80
2019-02-25T01:37:44.716Z,27.00
2019-02-25T01:40:14.300Z,26.90
2019-02-25T01:42:42.989Z,26.60
2019-02-25T01:45:13.744Z,26.60
2019-02-25T01:47:42.380Z,26.60
2019-02-25T01:50:11.675Z,26.60
2019-02-25T01:52:40.276Z,26.50
2019-02-25T01:55:10.848Z,26.70
2019-02-25T01:57:39.557Z,26.70
2019-02-25T02:00:11.520Z,26.60
2019-02-25T02:02:40.101Z,27.00
2019-02-25T02:05:09.180Z,27.40
2019-02-25T02:07:38.043Z,26.90
2019-02-25T02:10:09.445Z,27.40
2019-02-25T02:12:38.064Z,27.30
2019-02-25T02:15:12.572Z,28.00
2019-02-25T02:17:41.491Z,29.00
2019-02-25T02:20:12.884Z,29.10
2019-02-25T02:22:41.436Z,27.50
2019-02-25T02:25:11.449Z,27.50
2019-02-25T02:27:40.072Z,28.60
2019-02-25T02:30:21.793Z,28.30
2019-02-25T02:32:50.708Z,27.90
2019-02-25T02:35:19.420Z,29.10
2019-02-25T02:37:47.973Z,29.80
2019-02-25T02:40:16.640Z,30.00
2019-02-25T02:42:59.632Z,29.10
2019-02-25T02:45:33.976Z,30.20
2019-02-25T02:48:11.404Z,29.40
2019-02-25T02:50:39.984Z,29.50
2019-02-25T02:53:08.532Z,29.50
2019-02-25T02:55:37.179Z,29.30
2019-02-25T02:58:08.659Z,29.40
2019-02-25T03:00:37.521Z,29.50
2019-02-25T03:03:06.136Z,29.70
2019-02-25T03:05:34.648Z,29.90
2019-02-25T03:08:03.296Z,29.90
2019-02-25T03:10:31.849Z,30.30
2019-02-25T03:13:00.433Z,30.60
2019-02-25T03:15:28.980Z,31.00
2019-02-25T03:17:57.560Z,31.40
2019-02-25T03:20:26.112Z,32.00
2019-02-25T03:22:54.700Z,32.50
2019-02-25T03:25:23.319Z,33.20
2019-02-25T03:27:51.873Z,34.10
2019-02-25T03:30:22.309Z,34.60
2019-02-25T03:32:51.073Z,35.40
2019-02-25T03:35:19.648Z,35.60
2019-02-25T03:37:48.232Z,35.90
2019-02-25T03:40:22.268Z,36.00
2019-02-25T03:42:51.089Z,35.70
2019-02-25T03:45:20.817Z,36.40
2019-02-25T03:47:49.442Z,36.50
2019-02-25T03:50:18.066Z,36.80
2019-02-25T03:52:46.634Z,37.20
2019-02-25T03:55:21.431Z,36.10
2019-02-25T03:57:50.238Z,35.60
2019-02-25T04:00:24.873Z,36.40
2019-02-25T04:02:53.804Z,36.30
2019-02-25T04:05:22.435Z,36.00
2019-02-25T04:07:51.072Z,35.20
2019-02-25T04:10:19.623Z,34.80
2019-02-25T04:12:48.269Z,33.50
2019-02-25T04:15:25.992Z,33.00
2019-02-25T04:17:54.896Z,32.50
2019-02-25T04:20:23.452Z,32.10
2019-02-25T04:22:52.009Z,32.20
2019-02-25T04:25:20.579Z,32.10
2019-02-25T04:27:49.140Z,32.40
2019-02-25T04:30:17.790Z,33.40
2019-02-25T04:32:46.339Z,32.90
2019-02-25T04:35:15.001Z,32.80
2019-02-25T04:37:43.552Z,32.40
2019-02-25T04:40:13.662Z,32.70
2019-02-25T04:42:42.492Z,32.40
2019-02-25T04:45:16.668Z,34.70
2019-02-25T04:47:45.239Z,34.60
2019-02-25T04:50:14.219Z,34.70
2019-02-25T04:52:42.972Z,34.40
2019-02-25T04:55:12.968Z,34.70
2019-02-25T04:57:41.561Z,35.70
2019-02-25T05:00:14.933Z,37.00
2019-02-25T05:02:43.577Z,35.80
2019-02-25T05:05:12.369Z,35.70
2019-02-25T05:07:41.000Z,35.40
2019-02-25T05:10:12.466Z,35.90
2019-02-25T05:12:43.024Z,35.90
2019-02-25T05:15:13.457Z,35.90
2019-02-25T05:17:42.081Z,36.00
2019-02-25T05:20:10.792Z,36.60
2019-02-25T05:22:39.340Z,36.60
2019-02-25T05:25:10.480Z,36.90
2019-02-25T05:27:39.124Z,36.90
2019-02-25T05:30:16.408Z,37.30
2019-02-25T05:32:44.941Z,38.00
2019-02-25T05:35:13.888Z,38.10
2019-02-25T05:37:42.522Z,38.40
2019-02-25T05:40:16.172Z,38.80
2019-02-25T05:42:45.117Z,38.90
2019-02-25T05:45:14.765Z,39.00
2019-02-25T05:47:43.322Z,39.30
2019-02-25T05:50:14.504Z,40.80
2019-02-25T05:52:43.409Z,39.90
2019-02-25T05:55:14.175Z,40.10
2019-02-25T05:57:42.773Z,40.50
2019-02-25T06:00:18.559Z,40.80
2019-02-25T06:02:47.182Z,41.20
2019-02-25T06:05:15.800Z,41.70
2019-02-25T06:07:44.372Z,42.00
2019-02-25T06:10:13.860Z,42.30
2019-02-25T06:12:42.501Z,42.40
2019-02-25T06:15:20.793Z,42.10
2019-02-25T06:17:49.581Z,41.60
2019-02-25T06:20:18.826Z,41.80
2019-02-25T06:22:47.673Z,41.70
2019-02-25T06:25:17.127Z,41.70
2019-02-25T06:27:45.880Z,41.30
2019-02-25T06:30:19.106Z,41.40
2019-02-25T06:32:47.719Z,41.50
2019-02-25T06:35:16.627Z,41.30
2019-02-25T06:37:45.312Z,41.90
2019-02-25T06:40:18.506Z,41.50
2019-02-25T06:42:47.135Z,40.90
2019-02-25T06:45:18.780Z,40.20
2019-02-25T06:47:47.338Z,39.70
2019-02-25T06:50:15.900Z,38.10
2019-02-25T06:52:44.492Z,37.60
2019-02-25T06:55:15.140Z,37.00
2019-02-25T06:57:43.859Z,36.50
2019-02-25T07:00:19.611Z,36.90
2019-02-25T07:02:48.228Z,35.70
2019-02-25T07:05:30.184Z,35.20
2019-02-25T07:08:00.768Z,35.10
2019-02-25T07:10:30.996Z,35.00
2019-02-25T07:13:16.552Z,35.10
2019-02-25T07:15:49.687Z,34.40
2019-02-25T07:18:31.712Z,34.10
2019-02-25T07:21:19.996Z,33.80
2019-02-25T07:23:50.204Z,33.30
2019-02-25T07:26:20.444Z,32.50
2019-02-25T07:28:50.740Z,32.40
2019-02-25T07:31:20.936Z,31.80
2019-02-25T07:34:00.429Z,30.20
2019-02-25T07:36:36.571Z,29.20
2019-02-25T07:39:08.596Z,27.70
2019-02-25T07:41:39.092Z,27.40
2019-02-25T07:44:27.340Z,26.40
2019-02-25T07:47:06.494Z,26.60
2019-02-25T07:49:53.614Z,26.80
2019-02-25T07:52:40.047Z,27.20
2019-02-25T07:55:11.084Z,27.70
2019-02-25T07:57:41.276Z,27.60
2019-02-25T08:00:12.436Z,25.30
2019-02-25T08:02:42.636Z,24.30
2019-02-25T08:05:21.564Z,23.90
2019-02-25T08:08:01.304Z,23.00
2019-02-25T08:10:47.767Z,22.40
2019-02-25T08:13:21.069Z,22.10
2019-02-25T08:16:07.672Z,21.00
2019-02-25T08:18:37.956Z,20.30
2019-02-25T08:21:11.037Z,19.30
2019-02-25T08:23:50.099Z,19.10
2019-02-25T08:26:22.992Z,19.20
2019-02-25T08:29:09.503Z,19.40
2019-02-25T08:31:54.704Z,18.00
2019-02-25T08:34:24.936Z,19.50
2019-02-25T08:37:02.314Z,19.30
2019-02-25T08:39:36.266Z,18.20
2019-02-25T08:42:09.855Z,17.80
2019-02-25T08:44:55.274Z,17.70
2019-02-25T08:47:27.986Z,17.80
2019-02-25T08:49:57.024Z,17.40
2019-02-25T08:52:25.749Z,16.60
2019-02-25T08:54:54.308Z,16.50
2019-02-25T08:57:22.889Z,16.20
2019-02-25T08:59:51.527Z,16.00
2019-02-25T09:02:20.292Z,16.30
2019-02-25T09:04:49.367Z,15.70
2019-02-25T09:07:18.104Z,16.10
2019-02-25T09:09:46.670Z,16.00
2019-02-25T09:12:15.271Z,15.90
2019-02-25T09:14:43.832Z,15.80
2019-02-25T09:17:12.460Z,15.40
2019-02-25T09:19:41.160Z,14.80
2019-02-25T09:22:09.721Z,14.30
2019-02-25T09:24:38.319Z,14.60
2019-02-25T09:27:07.148Z,14.50
2019-02-25T09:29:35.730Z,14.00
2019-02-25T09:32:04.305Z,13.80
2019-02-25T09:34:32.881Z,13.90
2019-02-25T09:37:01.456Z,13.50
2019-02-25T09:39:30.058Z,13.50
2019-02-25T09:41:58.612Z,13.40
2019-02-25T09:44:27.178Z,12.90
2019-02-25T09:46:55.756Z,12.90
2019-02-25T09:49:24.312Z,12.50
2019-02-25T09:51:53.220Z,12.70
2019-02-25T09:54:21.794Z,12.80
2019-02-25T09:56:50.390Z,13.20
2019-02-25T09:59:18.944Z,12.90
2019-02-25T10:01:47.500Z,12.60
2019-02-25T10:04:16.080Z,12.30
2019-02-25T10:06:44.700Z,12.80
2019-02-25T10:09:13.275Z,12.00
2019-02-25T10:11:41.836Z,11.90
2019-02-25T10:14:10.422Z,11.70
2019-02-25T10:16:38.976Z,11.80
2019-02-25T10:19:07.553Z,11.40
2019-02-25T10:21:36.113Z,11.70
2019-02-25T10:24:04.696Z,12.10
2019-02-25T10:26:33.253Z,12.80
2019-02-25T10:29:01.808Z,13.60
2019-02-25T10:31:30.401Z,14.30
2019-02-25T10:33:58.956Z,14.60
2019-02-25T10:36:27.540Z,14.60
2019-02-25T10:38:56.113Z,14.70
2019-02-25T10:41:26.125Z,16.20
2019-02-25T10:43:54.948Z,16.30
2019-02-25T10:46:23.548Z,16.20
2019-02-25T10:48:54.417Z,15.70
2019-02-25T10:51:22.426Z,13.90
2019-02-25T10:53:52.022Z,13.20
2019-02-25T10:56:33.408Z,13.50
2019-02-25T10:59:03.601Z,14.50
2019-02-25T11:01:32.269Z,14.80
2019-02-25T11:04:01.074Z,15.80
2019-02-25T11:06:31.427Z,17.00
2019-02-25T11:09:01.511Z,19.20
2019-02-25T11:11:31.787Z,20.90
2019-02-25T11:14:01.309Z,21.70
2019-02-25T11:16:30.976Z,22.20
2019-02-25T11:19:00.905Z,20.90
2019-02-25T11:21:29.529Z,20.40
2019-02-25T11:23:59.103Z,19.70
2019-02-25T11:26:28.865Z,18.40
2019-02-25T11:28:57.882Z,18.60
2019-02-25T11:31:28.583Z,17.70
2019-02-25T11:33:58.452Z,16.90
2019-02-25T11:36:26.937Z,18.90
2019-02-25T11:38:55.501Z,21.10
2019-02-25T11:41:24.144Z,25.00
2019-02-25T11:43:53.523Z,27.80
2019-02-25T11:46:23.442Z,30.80
2019-02-25T11:48:52.956Z,31.90
2019-02-25T11:51:21.700Z,32.80
2019-02-25T11:53:50.577Z,36.10
2019-02-25T11:56:19.141Z,37.50
2019-02-25T11:58:47.790Z,36.50
2019-02-25T12:01:16.469Z,35.50
2019-02-25T12:03:45.046Z,35.60
2019-02-25T12:06:13.823Z,36.60
2019-02-25T12:08:42.828Z,35.50
2019-02-25T12:11:11.384Z,34.80
2019-02-25T12:13:39.964Z,34.70
2019-02-25T12:16:08.558Z,34.50
2019-02-25T12:18:37.177Z,35.70
2019-02-25T12:21:06.214Z,36.80
2019-02-25T12:23:34.833Z,37.30
2019-02-25T12:26:03.612Z,38.30
2019-02-25T12:28:32.161Z,39.00
2019-02-25T12:31:00.836Z,39.70
2019-02-25T12:33:29.468Z,41.10
2019-02-25T12:35:58.112Z,42.20
2019-02-25T12:38:26.788Z,41.80
2019-02-25T12:40:55.436Z,42.90
2019-02-25T12:43:24.335Z,43.00
2019-02-25T12:45:52.936Z,43.00
2019-02-25T12:48:22.729Z,43.10
2019-02-25T12:50:51.497Z,43.50
2019-02-25T12:53:20.092Z,43.20
2019-02-25T12:55:48.696Z,43.80
2019-02-25T12:58:17.268Z,44.10
2019-02-25T13:00:46.325Z,44.10
2019-02-25T13:03:14.840Z,44.00
2019-02-25T13:05:43.446Z,44.60
2019-02-25T13:08:12.040Z,44.90
2019-02-25T13:10:40.632Z,44.00
2019-02-25T13:13:09.256Z,44.40
2019-02-25T13:15:37.862Z,45.70
2019-02-25T13:18:06.440Z,44.50
2019-02-25T13:20:35.362Z,44.80
2019-02-25T13:23:03.968Z,45.40
2019-02-25T13:25:33.067Z,45.00
2019-02-25T13:28:04.316Z,45.00
2019-02-25T13:30:32.949Z,45.70
2019-02-25T13:33:01.536Z,45.40
2019-02-25T13:35:30.091Z,44.90
2019-02-25T13:37:58.648Z,45.30
2019-02-25T13:40:27.248Z,45.80
2019-02-25T13:42:55.799Z,46.10
2019-02-25T13:45:24.442Z,45.90
2019-02-25T13:47:53.324Z,45.70
2019-02-25T13:50:21.937Z,45.90
2019-02-25T13:52:51.545Z,46.10
2019-02-25T13:55:24.004Z,45.60
2019-02-25T13:57:52.556Z,45.70
2019-02-25T14:00:22.572Z,46.50
2019-02-25T14:02:51.298Z,46.00
2019-02-25T14:05:20.125Z,45.50
2019-02-25T14:07:48.885Z,46.20
2019-02-25T14:10:18.635Z,46.60
2019-02-25T14:12:47.652Z,46.10
2019-02-25T14:15:23.434Z,46.00
2019-02-25T14:17:52.768Z,45.90
2019-02-25T14:20:22.555Z,46.00
2019-02-25T14:22:51.401Z,46.40
2019-02-25T14:25:30.456Z,46.30
2019-02-25T14:27:59.385Z,46.60
2019-02-25T14:30:32.713Z,46.50
2019-02-25T14:32:58.891Z,46.90
2019-02-25T14:35:30.569Z,46.90
2019-02-25T14:38:07.250Z,46.70
2019-02-25T14:40:32.593Z,47.00
2019-02-25T14:43:03.959Z,46.60
2019-02-25T14:45:34.183Z,46.70
2019-02-25T14:48:03.098Z,47.00
2019-02-25T14:50:32.139Z,47.00
2019-02-25T14:53:03.204Z,47.50
2019-02-25T14:55:31.347Z,47.10
2019-02-25T14:58:02.537Z,47.40
2019-02-25T15:00:32.697Z,48.00
2019-02-25T15:03:00.832Z,47.80
2019-02-25T15:05:29.452Z,47.90
2019-02-25T15:07:58.309Z,47.80
2019-02-25T15:10:29.223Z,48.10
2019-02-25T15:12:59.212Z,48.40
2019-02-25T15:15:27.505Z,49.00
2019-02-25T15:17:56.057Z,47.90
2019-02-25T15:20:26.287Z,47.50
2019-02-25T15:22:55.109Z,48.30
2019-02-25T15:25:23.679Z,48.20
2019-02-25T15:27:52.408Z,48.60
2019-02-25T15:30:30.722Z,49.00
2019-02-25T15:33:00.117Z,48.90
2019-02-25T15:35:34.072Z,49.00
2019-02-25T15:38:00.353Z,48.70
2019-02-25T15:40:29.303Z,47.30
2019-02-25T15:43:02.844Z,48.30
2019-02-25T15:45:35.402Z,48.50
2019-02-25T15:48:05.100Z,48.70
2019-02-25T15:50:33.892Z,48.40
2019-02-25T15:53:03.170Z,48.70
2019-02-25T15:55:32.810Z,48.60
2019-02-25T15:58:01.553Z,49.20
2019-02-25T16:00:32.728Z,49.30
2019-02-25T16:03:03.830Z,49.00
2019-02-25T16:05:35.921Z,49.40
2019-02-25T16:08:04.957Z,49.10
2019-02-25T16:10:33.740Z,49.30
2019-02-25T16:13:04.521Z,49.70
2019-02-25T16:15:33.089Z,49.60
2019-02-25T16:18:02.569Z,49.60
2019-02-25T16:20:32.567Z,49.50
2019-02-25T16:23:02.736Z,49.80
2019-02-25T16:25:34.299Z,49.90
2019-02-25T16:28:02.524Z,50.00
2019-02-25T16:30:31.404Z,50.00
2019-02-25T16:33:02.281Z,50.20
2019-02-25T16:35:30.409Z,50.50
2019-02-25T16:38:00.314Z,50.50
2019-02-25T16:40:31.488Z,50.90
2019-02-25T16:43:00.315Z,51.50
2019-02-25T16:45:34.818Z,50.90
2019-02-25T16:48:00.078Z,51.60
2019-02-25T16:50:29.308Z,51.50
2019-02-25T16:52:57.975Z,51.20
2019-02-25T16:55:27.758Z,50.80
2019-02-25T16:57:56.794Z,51.30
2019-02-25T17:00:29.398Z,51.60
2019-02-25T17:02:59.207Z,51.80
2019-02-25T17:05:27.020Z,52.00
2019-02-25T17:07:56.423Z,52.00
2019-02-25T17:10:28.463Z,52.30
2019-02-25T17:12:56.201Z,52.40
2019-02-25T17:15:26.931Z,52.50
2019-02-25T17:17:58.347Z,53.50
2019-02-25T17:20:28.107Z,53.30
2019-02-25T17:22:56.315Z,53.50
2019-02-25T17:25:26.902Z,53.80
2019-02-25T17:27:55.232Z,53.60
2019-02-25T17:30:25.551Z,54.10
2019-02-25T17:32:54.168Z,54.40
2019-02-25T17:35:26.591Z,54.20
2019-02-25T17:37:56.234Z,54.00
2019-02-25T17:40:24.797Z,54.20
2019-02-25T17:42:54.545Z,54.30
2019-02-25T17:45:29.946Z,54.20
2019-02-25T17:48:01.132Z,54.10
2019-02-25T17:50:30.244Z,54.40
2019-02-25T17:53:00.804Z,54.40
2019-02-25T17:55:31.718Z,54.80
2019-02-25T17:58:00.972Z,54.90
2019-02-25T18:00:35.011Z,55.00
2019-02-25T18:03:03.743Z,55.00
2019-02-25T18:05:34.126Z,54.90
2019-02-25T18:08:03.504Z,55.00
2019-02-25T18:10:33.143Z,55.40
2019-02-25T18:13:05.987Z,55.50
2019-02-25T18:15:33.155Z,56.00
2019-02-25T18:18:01.873Z,56.20
2019-02-25T18:20:30.958Z,56.60
2019-02-25T18:22:59.734Z,56.80
2019-02-25T18:25:28.348Z,56.50
2019-02-25T18:27:56.929Z,57.00
2019-02-25T18:30:31.314Z,57.30
2019-02-25T18:33:02.789Z,57.80
2019-02-25T18:35:31.212Z,58.90
2019-02-25T18:38:00.807Z,59.30
2019-02-25T18:40:30.149Z,59.90
2019-02-25T18:43:00.429Z,60.60
2019-02-25T18:45:30.806Z,61.00
2019-02-25T18:47:59.464Z,61.50
2019-02-25T18:50:29.002Z,61.70
2019-02-25T18:52:59.552Z,62.10
2019-02-25T18:55:29.821Z,62.50
2019-02-25T18:57:59.564Z,62.90
2019-02-25T19:00:32.019Z,63.50
2019-02-25T19:03:02.098Z,64.30
2019-02-25T19:05:31.491Z,64.90
2019-02-25T19:08:00.569Z,64.60
2019-02-25T19:10:29.279Z,64.90
2019-02-25T19:12:59.182Z,65.00
2019-02-25T19:15:28.939Z,64.30
2019-02-25T19:17:57.664Z,64.00
2019-02-25T19:20:26.728Z,63.30
2019-02-25T19:22:58.215Z,63.50
2019-02-25T19:25:25.934Z,64.00
2019-02-25T19:27:56.451Z,64.20
2019-02-25T19:30:27.196Z,64.70
2019-02-25T19:32:55.244Z,66.00
2019-02-25T19:35:25.926Z,65.50
2019-02-25T19:37:54.152Z,65.90
2019-02-25T19:40:24.511Z,66.30
2019-02-25T19:42:54.234Z,66.30
2019-02-25T19:45:24.755Z,66.20
2019-02-25T19:47:55.321Z,66.30
2019-02-25T19:50:25.958Z,67.00
2019-02-25T19:52:54.309Z,67.00
2019-02-25T19:55:23.439Z,66.90
2019-02-25T19:57:52.266Z,67.30
2019-02-25T20:00:28.163Z,67.20
2019-02-25T20:03:05.743Z,67.70
2019-02-25T20:05:33.179Z,68.10
2019-02-25T20:08:01.811Z,68.70
2019-02-25T20:10:30.948Z,68.60
2019-02-25T20:13:00.291Z,69.10
2019-02-25T20:15:28.944Z,69.50
2019-02-25T20:17:57.501Z,70.60
2019-02-25T20:20:27.692Z,70.50
2019-02-25T20:22:57.909Z,70.30
2019-02-25T20:25:28.565Z,70.00
2019-02-25T20:27:57.582Z,70.00
2019-02-25T20:30:28.231Z,70.10
2019-02-25T20:32:58.970Z,71.60
2019-02-25T20:35:29.148Z,70.80
2019-02-25T20:38:00.234Z,70.10
2019-02-25T20:40:28.760Z,69.20
2019-02-25T20:43:00.424Z,68.80
2019-02-25T20:45:35.866Z,68.50
2019-02-25T20:48:05.312Z,68.60
2019-02-25T20:50:35.375Z,69.20
2019-02-25T20:53:06.511Z,69.70
2019-02-25T20:55:36.310Z,70.00
2019-02-25T20:58:04.649Z,70.60
2019-02-25T21:00:36.940Z,71.10
2019-02-25T21:03:03.460Z,71.50
2019-02-25T21:05:32.055Z,71.70
2019-02-25T21:08:00.687Z,71.90
2019-02-25T21:10:32.590Z,71.90
2019-02-25T21:13:02.095Z,72.20
2019-02-25T21:15:33.377Z,72.60
2019-02-25T21:18:04.068Z,73.00
2019-02-25T21:20:31.475Z,73.40
2019-02-25T21:23:03.478Z,73.50
2019-02-25T21:25:31.416Z,73.60
2019-02-25T21:28:02.326Z,73.40
2019-02-25T21:30:31.351Z,73.20
2019-02-25T21:33:01.922Z,73.00
2019-02-25T21:35:31.773Z,72.70
2019-02-25T21:38:00.332Z,73.00
2019-02-25T21:40:30.117Z,72.60
2019-02-25T21:42:59.577Z,73.80
2019-02-25T21:45:30.214Z,73.60
2019-02-25T21:47:59.559Z,73.40
2019-02-25T21:50:30.911Z,73.40
2019-02-25T21:52:58.997Z,73.50
2019-02-25T21:55:28.537Z,73.60
2019-02-25T21:58:00.023Z,73.90
2019-02-25T22:00:31.958Z,73.10
2019-02-25T22:02:58.272Z,72.60
2019-02-25T22:05:27.188Z,73.00
2019-02-25T22:07:57.770Z,73.30
2019-02-25T22:10:26.240Z,72.40
2019-02-25T22:12:55.434Z,72.10
2019-02-25T22:15:24.068Z,71.70
2019-02-25T22:17:53.564Z,71.80
2019-02-25T22:20:24.933Z,71.50
2019-02-25T22:22:56.682Z,71.90
2019-02-25T22:25:23.614Z,72.30
2019-02-25T22:27:52.152Z,72.40
2019-02-25T22:30:20.824Z,71.90
2019-02-25T22:32:49.386Z,72.80
2019-02-25T22:35:18.117Z,73.30
2019-02-25T22:37:49.231Z,73.90
2019-02-25T22:40:17.718Z,73.90
2019-02-25T22:42:48.014Z,73.90
2019-02-25T22:45:20.997Z,74.10
2019-02-25T22:47:49.612Z,74.20
2019-02-25T22:50:18.244Z,74.50
2019-02-25T22:52:46.898Z,74.10
2019-02-25T22:55:17.950Z,74.10
2019-02-25T22:57:46.675Z,74.20
2019-02-25T23:00:30.248Z,74.60
2019-02-25T23:02:58.956Z,75.10
2019-02-25T23:05:27.745Z,75.00
2019-02-25T23:07:56.320Z,75.40
2019-02-25T23:10:25.011Z,75.60
2019-02-25T23:12:53.736Z,75.60
2019-02-25T23:15:23.315Z,75.80
2019-02-25T23:17:52.748Z,75.30
2019-02-25T23:20:22.963Z,75.70
2019-02-25T23:22:52.919Z,75.90
2019-02-25T23:25:21.715Z,75.90
2019-02-25T23:27:51.670Z,75.30
2019-02-25T23:30:21.330Z,75.60
2019-02-25T23:32:52.326Z,75.80
2019-02-25T23:35:22.859Z,76.40
2019-02-25T23:37:53.720Z,76.80
2019-02-25T23:40:21.694Z,77.60
2019-02-25T23:42:50.228Z,78.20
2019-02-25T23:45:21.087Z,80.00
2019-02-25T23:47:49.152Z,79.50
2019-02-25T23:50:17.723Z,79.90
2019-02-25T23:52:46.276Z,80.20
2019-02-25T23:55:17.217Z,80.40
2019-02-25T23:57:45.116Z,80.50
